METAR Data
IDs: Format: Raw Decoded Include TAF

Data at: 1313 UTC 26 Feb 2021

KPHT 261255Z AUTO 06007KT 10SM FEW027 FEW075 FEW095 06/M01 A3007 RMK A01